Time;durP1;ratioP1;P1;durP2;ratioP2;P2;SDS_P1;SDS_P2;PMS_P1;PMS_P2;Temp;Humidity;BMP_temperature;BMP_pressure;BME280_temperature;BME280_humidity;BME280_pressure;Samples;Min_cycle;Max_cycle;Signal;HPM_P1;HPM_P2
2023/11/26 00:02:22;;;;;;;5.25;1.50;;;;;;;19.15;38.58;101476.63;5006798;28;20026;-63
2023/11/26 00:04:47;;;;;;;4.43;1.58;;;;;;;19.14;38.42;101475.78;5006171;28;20034;-63
2023/11/26 00:07:13;;;;;;;4.93;1.63;;;;;;;19.13;38.25;101478.53;5006979;28;20040;-66
2023/11/26 00:09:39;;;;;;;3.33;1.40;;;;;;;19.12;38.33;101476.84;5007025;28;20276;-64
2023/11/26 00:12:07;;;;;;;3.78;1.52;;;;;;;19.09;38.36;101471.78;5006541;28;20034;-63
2023/11/26 00:14:32;;;;;;;5.38;1.67;;;;;;;19.07;38.43;101469.25;5006170;28;20064;-65
2023/11/26 00:16:58;;;;;;;4.15;1.55;;;;;;;19.06;38.37;101472.88;5006464;28;20282;-64
2023/11/26 00:19:24;;;;;;;4.47;1.58;;;;;;;19.05;38.27;101475.63;5006656;28;20522;-63
2023/11/26 00:21:49;;;;;;;3.53;1.40;;;;;;;19.03;38.43;101470.47;5006490;28;20453;-65
2023/11/26 00:24:15;;;;;;;4.18;1.30;;;;;;;19.01;38.23;101475.03;5006551;28;20433;-64
2023/11/26 00:26:40;;;;;;;3.97;1.58;;;;;;;19.01;38.39;101480.31;5020953;28;20048;-64
2023/11/26 00:29:05;;;;;;;4.57;1.40;;;;;;;18.98;38.23;101476.09;5005920;28;20038;-64
2023/11/26 00:31:31;;;;;;;5.13;1.40;;;;;;;18.97;37.96;101474.41;5005747;28;20374;-64
2023/11/26 00:33:57;;;;;;;3.55;1.40;;;;;;;18.95;38.02;101473.69;5005442;28;20038;-64
2023/11/26 00:36:22;;;;;;;4.13;1.70;;;;;;;18.94;38.32;101474.63;5006450;28;20069;-63
2023/11/26 00:38:47;;;;;;;3.53;1.40;;;;;;;18.94;37.84;101476.44;5006212;28;20026;-63
2023/11/26 00:41:13;;;;;;;5.15;1.80;;;;;;;18.92;38.01;101473.91;5005701;28;20026;-63
2023/11/26 00:43:39;;;;;;;5.95;1.58;;;;;;;18.91;37.87;101471.38;5008510;28;20034;-63
2023/11/26 00:46:05;;;;;;;4.78;1.33;;;;;;;18.89;38.04;101463.56;5010556;28;20033;-63
2023/11/26 00:48:30;;;;;;;4.22;1.60;;;;;;;18.89;37.77;101471.50;5010054;28;20584;-63
2023/11/26 00:50:56;;;;;;;3.42;1.38;;;;;;;18.88;37.78;101464.53;5009871;28;20091;-63
2023/11/26 00:53:21;;;;;;;5.05;1.85;;;;;;;18.85;37.79;101467.41;5009808;28;20421;-64
2023/11/26 00:55:46;;;;;;;4.03;1.35;;;;;;;18.84;38.17;101461.28;5009598;28;20029;-63
2023/11/26 00:58:12;;;;;;;4.93;1.48;;;;;;;18.82;38.04;101460.53;5009648;28;20038;-65
2023/11/26 01:00:41;;;;;;;4.00;1.63;;;;;;;18.80;37.91;101467.72;5009945;28;20096;-64
2023/11/26 01:03:07;;;;;;;5.28;1.50;;;;;;;18.81;37.72;101465.91;5009626;28;20031;-63
2023/11/26 01:05:33;;;;;;;4.22;1.40;;;;;;;18.80;37.66;101469.50;5010107;28;20038;-66
2023/11/26 01:07:58;;;;;;;4.05;1.50;;;;;;;18.80;37.72;101465.09;5009682;28;20030;-65
2023/11/26 01:10:24;;;;;;;3.97;1.42;;;;;;;18.78;37.52;101460.88;5008269;28;20389;-65
2023/11/26 01:12:49;;;;;;;3.88;1.40;;;;;;;18.77;37.69;101467.94;5009593;28;20061;-65
2023/11/26 01:15:15;;;;;;;3.17;1.25;;;;;;;18.76;37.52;101463.63;5009414;28;20040;-63
2023/11/26 01:17:41;;;;;;;3.75;1.40;;;;;;;18.75;37.82;101469.84;5009582;28;20038;-63
2023/11/26 01:20:09;;;;;;;3.67;1.50;;;;;;;18.74;37.58;101464.69;5009882;28;20034;-63
2023/11/26 01:22:35;;;;;;;3.13;1.33;;;;;;;18.72;37.61;101464.78;5009418;28;20041;-63
2023/11/26 01:25:00;;;;;;;5.32;1.40;;;;;;;18.72;37.57;101466.59;5008871;28;20034;-63
2023/11/26 01:27:26;;;;;;;4.25;1.42;;;;;;;18.72;37.44;101466.59;5009431;28;20080;-64
2023/11/26 01:29:51;;;;;;;4.57;1.40;;;;;;;18.70;37.71;101466.72;5008542;28;20056;-64
2023/11/26 01:32:17;;;;;;;4.75;1.55;;;;;;;18.70;37.84;101465.88;5009368;28;20455;-63
2023/11/26 01:34:42;;;;;;;4.18;1.40;;;;;;;18.70;37.64;101463.22;5009124;28;20034;-63
2023/11/26 01:37:08;;;;;;;4.55;1.45;;;;;;;18.66;37.71;101463.47;5009219;28;20041;-63
2023/11/26 01:39:34;;;;;;;4.43;1.23;;;;;;;18.67;37.54;101465.16;5009459;28;20109;-62
2023/11/26 01:41:59;;;;;;;4.40;1.48;;;;;;;18.66;37.53;101460.81;5008975;28;20120;-62
2023/11/26 01:44:24;;;;;;;4.05;1.55;;;;;;;18.68;37.58;101471.28;5009133;28;20113;-65
2023/11/26 01:46:51;;;;;;;3.42;1.35;;;;;;;18.65;37.55;101467.03;5009255;28;20076;-62
2023/11/26 01:49:17;;;;;;;4.13;1.40;;;;;;;18.65;37.47;101466.22;5009332;28;20546;-63
2023/11/26 01:51:42;;;;;;;2.90;1.20;;;;;;;18.65;37.58;101468.84;5008861;28;20229;-64
2023/11/26 01:54:10;;;;;;;4.28;1.30;;;;;;;18.64;37.65;101467.16;5007714;28;20468;-64
2023/11/26 01:56:36;;;;;;;4.50;1.67;;;;;;;18.62;37.64;101461.16;5008591;28;20029;-63
2023/11/26 01:59:02;;;;;;;4.38;1.27;;;;;;;18.62;37.73;101463.78;5009046;28;20104;-63
2023/11/26 02:01:27;;;;;;;4.85;1.52;;;;;;;18.61;37.44;101467.38;5008559;28;20263;-64
2023/11/26 02:03:53;;;;;;;4.75;1.25;;;;;;;18.62;37.59;101471.72;5009024;28;20053;-63
2023/11/26 02:06:19;;;;;;;4.70;1.60;;;;;;;18.61;37.62;101475.28;5008602;28;20030;-64
2023/11/26 02:08:45;;;;;;;4.55;1.40;;;;;;;18.59;37.58;101474.56;5008235;28;20036;-64
2023/11/26 02:11:11;;;;;;;3.88;1.40;;;;;;;18.57;37.50;101481.78;5008626;28;20029;-63
2023/11/26 02:13:46;;;;;;;4.70;1.42;;;;;;;18.57;37.48;101484.41;5008736;28;20045;-62
2023/11/26 02:16:13;;;;;;;4.80;1.50;;;;;;;18.57;37.66;101481.78;5008528;28;20032;-63
2023/11/26 02:18:39;;;;;;;4.47;1.73;;;;;;;18.55;37.52;101478.38;5008107;28;20488;-63
2023/11/26 02:21:05;;;;;;;3.63;1.45;;;;;;;18.55;37.68;101475.75;5008447;28;20038;-63
2023/11/26 02:23:32;;;;;;;4.47;1.40;;;;;;;18.55;37.63;101481.03;5008378;28;20489;-63
2023/11/26 02:25:58;;;;;;;3.72;1.30;;;;;;;18.54;37.81;101480.19;5008369;28;20177;-63
2023/11/26 02:28:24;;;;;;;3.33;1.20;;;;;;;18.54;37.57;101480.19;5008264;28;20502;-62
2023/11/26 02:30:49;;;;;;;4.20;1.38;;;;;;;18.54;37.63;101487.28;5007482;28;20183;-62
2023/11/26 02:33:14;;;;;;;4.90;1.48;;;;;;;18.53;37.65;101491.69;5008570;28;20080;-64
2023/11/26 02:35:40;;;;;;;4.60;1.40;;;;;;;18.53;37.91;101486.41;5008027;28;20466;-63
2023/11/26 02:38:05;;;;;;;4.70;1.50;;;;;;;18.52;37.78;101481.25;5007855;28;20040;-63
2023/11/26 02:40:31;;;;;;;3.92;1.10;;;;;;;18.51;37.65;101485.69;5008119;28;20080;-63
2023/11/26 02:42:59;;;;;;;3.95;1.30;;;;;;;18.51;37.94;101488.34;5022637;28;20069;-64
2023/11/26 02:45:24;;;;;;;3.05;1.17;;;;;;;18.51;37.71;101483.06;5007702;28;20036;-63
2023/11/26 02:47:49;;;;;;;3.92;1.40;;;;;;;18.49;37.70;101485.81;5007795;28;20025;-63
2023/11/26 02:50:15;;;;;;;4.20;1.30;;;;;;;18.48;37.57;101489.41;5007924;28;20036;-62
2023/11/26 02:52:40;;;;;;;5.00;1.50;;;;;;;18.49;37.76;101492.88;5007610;28;20067;-62
2023/11/26 02:55:06;;;;;;;3.40;1.52;;;;;;;18.49;37.49;101498.16;5007288;28;20022;-63
2023/11/26 02:57:32;;;;;;;5.38;1.40;;;;;;;18.47;37.48;101498.28;5007716;28;20462;-63
2023/11/26 03:00:00;;;;;;;2.60;1.02;;;;;;;18.45;37.84;101497.56;5008040;28;20038;-64
2023/11/26 03:02:25;;;;;;;5.95;1.42;;;;;;;18.45;37.82;101488.78;5007567;28;20029;-63
2023/11/26 03:04:53;;;;;;;5.63;1.35;;;;;;;18.44;37.68;101489.75;5007152;28;20067;-64
2023/11/26 03:07:21;;;;;;;4.13;1.27;;;;;;;18.43;37.71;101486.25;5007118;28;20084;-62
2023/11/26 03:15:15;;;;;;;4.28;1.40;;;;;;;18.42;37.59;101479.31;5007882;28;20378;-63
2023/11/26 03:17:41;;;;;;;5.07;1.63;;;;;;;18.42;37.87;101481.94;5006728;28;20037;-63
2023/11/26 03:20:08;;;;;;;3.83;1.30;;;;;;;18.42;37.64;101478.44;5007639;28;20030;-64
2023/11/26 03:22:34;;;;;;;4.50;1.23;;;;;;;18.41;37.70;101474.97;5007161;28;20072;-62
2023/11/26 03:24:59;;;;;;;3.65;1.10;;;;;;;18.42;37.86;101483.72;5007527;28;20034;-65
2023/11/26 03:27:24;;;;;;;3.33;1.20;;;;;;;18.41;37.77;101484.69;5007329;28;20105;-62
2023/11/26 03:29:50;;;;;;;3.05;1.00;;;;;;;18.40;37.65;101486.47;5006154;28;20041;-64
2023/11/26 03:32:16;;;;;;;3.92;1.30;;;;;;;18.39;37.60;101484.81;5006868;28;20380;-63
2023/11/26 03:34:41;;;;;;;3.65;1.20;;;;;;;18.38;37.85;101477.00;5007465;28;20037;-62
2023/11/26 03:37:07;;;;;;;3.00;1.10;;;;;;;18.38;37.78;101480.47;5007116;28;20025;-63
2023/11/26 03:39:38;;;;;;;4.32;1.60;;;;;;;18.38;37.80;101477.81;5006520;28;20129;-63
2023/11/26 03:42:04;;;;;;;3.60;1.17;;;;;;;18.38;37.74;101482.28;5007166;28;20069;-63
2023/11/26 03:44:31;;;;;;;4.28;1.55;;;;;;;18.36;37.80;101484.16;5007108;28;20076;-62
2023/11/26 03:46:57;;;;;;;3.65;1.40;;;;;;;18.35;37.73;101488.59;5007118;28;20021;-62
2023/11/26 03:49:22;;;;;;;3.75;1.33;;;;;;;18.35;37.69;101485.97;5006920;28;20026;-64
2023/11/26 03:51:49;;;;;;;4.50;1.60;;;;;;;18.33;37.86;101484.41;5007483;28;20018;-64
2023/11/26 03:54:16;;;;;;;4.78;1.30;;;;;;;18.34;37.88;101491.34;5006939;28;20034;-63
2023/11/26 03:56:41;;;;;;;3.13;1.05;;;;;;;18.33;37.84;101487.88;5006885;28;20335;-63
2023/11/26 03:59:06;;;;;;;3.95;1.30;;;;;;;18.33;37.78;101494.97;5006812;28;20033;-63
2023/11/26 04:01:32;;;;;;;3.72;1.40;;;;;;;18.32;37.91;101494.09;5006752;28;20068;-63
2023/11/26 04:03:58;;;;;;;3.72;1.25;;;;;;;18.32;37.67;101494.09;5006819;28;20033;-63
2023/11/26 04:06:24;;;;;;;3.75;1.38;;;;;;;18.31;37.69;101495.06;5006564;28;20299;-64
2023/11/26 04:08:49;;;;;;;3.88;1.13;;;;;;;18.30;37.89;101488.94;5006879;28;20420;-63
2023/11/26 04:11:14;;;;;;;4.45;1.30;;;;;;;18.29;37.75;101487.25;5007060;28;20022;-64
2023/11/26 04:13:39;;;;;;;3.63;1.27;;;;;;;18.31;37.82;101497.72;5006910;28;20048;-64
2023/11/26 04:16:07;;;;;;;4.80;1.30;;;;;;;18.29;37.94;101484.63;5006092;28;20263;-64
2023/11/26 04:18:33;;;;;;;3.33;1.15;;;;;;;18.30;37.85;101493.38;5009186;28;20026;-62
2023/11/26 04:20:58;;;;;;;3.88;1.10;;;;;;;18.28;37.98;101487.38;5010910;28;20082;-63
2023/11/26 04:23:23;;;;;;;4.25;1.30;;;;;;;18.28;38.06;101488.19;5010267;28;20026;-63
2023/11/26 04:25:48;;;;;;;3.60;1.05;;;;;;;18.27;37.80;101485.69;5010336;28;20177;-63
2023/11/26 04:28:14;;;;;;;4.27;1.30;;;;;;;18.27;37.73;101489.16;5010646;28;20022;-63
2023/11/26 04:30:39;;;;;;;2.85;1.13;;;;;;;18.27;37.91;101493.59;5009805;28;20286;-63
2023/11/26 04:33:04;;;;;;;4.18;0.90;;;;;;;18.28;38.14;101493.47;5010450;28;20022;-62
2023/11/26 04:35:30;;;;;;;4.10;1.30;;;;;;;18.26;38.06;101491.88;5010640;28;20542;-64
2023/11/26 04:37:56;;;;;;;3.50;1.00;;;;;;;18.26;37.96;101489.25;5010701;28;20052;-63
2023/11/26 04:40:22;;;;;;;3.40;1.02;;;;;;;18.25;37.92;101487.59;5010318;28;20508;-66
2023/11/26 04:42:47;;;;;;;4.10;1.30;;;;;;;18.26;37.90;101492.75;5010461;28;20026;-63
2023/11/26 04:45:13;;;;;;;3.65;1.00;;;;;;;18.26;38.00;101497.16;5010504;28;20021;-64
2023/11/26 04:47:39;;;;;;;5.43;1.40;;;;;;;18.25;37.95;101493.69;5010490;28;20030;-65
2023/11/26 04:50:05;;;;;;;3.20;1.02;;;;;;;18.24;38.20;101497.28;5010490;28;20030;-63
2023/11/26 04:52:31;;;;;;;3.15;1.05;;;;;;;18.23;38.10;101500.03;5009464;28;20049;-62
2023/11/26 04:54:57;;;;;;;4.15;1.00;;;;;;;18.24;38.01;101507.00;5010476;28;20439;-63
2023/11/26 04:57:23;;;;;;;3.10;1.00;;;;;;;18.23;38.25;101507.94;5009913;28;20029;-63
2023/11/26 04:59:48;;;;;;;3.28;1.08;;;;;;;18.22;37.90;101509.75;5009853;28;20053;-63
2023/11/26 05:02:14;;;;;;;3.30;1.30;;;;;;;18.23;38.04;101513.22;5009939;28;20033;-63
2023/11/26 05:04:40;;;;;;;2.53;1.00;;;;;;;18.23;38.13;101515.84;5010132;28;20045;-64
2023/11/26 05:07:05;;;;;;;4.38;1.13;;;;;;;18.22;38.08;101511.56;5009821;28;20061;-63
2023/11/26 05:09:32;;;;;;;3.38;1.27;;;;;;;18.22;38.16;101527.38;5009704;28;20112;-65
2023/11/26 05:11:59;;;;;;;2.45;0.90;;;;;;;18.23;37.86;101529.03;5009863;28;20458;-62
2023/11/26 05:14:24;;;;;;;4.00;1.10;;;;;;;18.21;38.01;101526.53;5010287;28;20026;-63
2023/11/26 05:16:49;;;;;;;3.25;1.17;;;;;;;18.20;38.22;101523.97;5010091;28;20036;-64
2023/11/26 05:19:15;;;;;;;4.83;1.40;;;;;;;18.21;37.97;101515.13;5009937;28;20025;-65
2023/11/26 05:21:42;;;;;;;4.25;1.27;;;;;;;18.20;38.39;101510.78;5009660;28;20292;-63
2023/11/26 05:24:07;;;;;;;3.97;1.08;;;;;;;18.20;37.92;101514.28;5008912;28;20033;-63
2023/11/26 05:26:33;;;;;;;4.85;1.67;;;;;;;18.20;38.29;101508.16;5009126;28;20111;-63
2023/11/26 05:28:58;;;;;;;3.95;1.30;;;;;;;18.19;38.06;101509.13;5008498;28;20055;-63
2023/11/26 05:31:24;;;;;;;4.78;1.30;;;;;;;18.19;38.34;101509.13;5009230;28;20052;-63
2023/11/26 05:33:53;;;;;;;4.50;1.30;;;;;;;18.17;38.14;101509.25;5008955;28;20497;-63
2023/11/26 05:36:19;;;;;;;4.28;1.20;;;;;;;18.18;38.05;101515.34;5009169;28;20048;-63
2023/11/26 05:38:45;;;;;;;3.92;1.10;;;;;;;18.16;38.28;101510.19;5008754;28;20038;-63
2023/11/26 05:41:11;;;;;;;2.80;0.90;;;;;;;18.18;38.33;101510.91;5007612;28;20034;-63
2023/11/26 05:43:36;;;;;;;2.70;1.10;;;;;;;18.17;38.38;101509.25;5008837;28;20030;-63
2023/11/26 05:46:06;;;;;;;5.20;1.23;;;;;;;18.19;38.45;101504.69;5009001;28;20029;-64
2023/11/26 05:48:31;;;;;;;3.22;1.00;;;;;;;18.22;38.72;101503.63;5007632;28;20026;-64
2023/11/26 05:50:57;;;;;;;3.40;1.13;;;;;;;18.25;38.70;101504.25;5008781;28;20018;-63
2023/11/26 05:53:22;;;;;;;2.80;0.90;;;;;;;18.26;39.07;101507.72;5008957;28;20029;-64
2023/11/26 05:55:48;;;;;;;3.17;0.88;;;;;;;18.29;39.08;101499.59;5008578;28;20022;-64
2023/11/26 05:58:13;;;;;;;2.17;0.77;;;;;;;18.32;39.11;101502.00;5008507;28;20116;-64
2023/11/26 06:00:38;;;;;;;2.85;0.90;;;;;;;18.39;39.08;101505.03;5008790;28;20045;-65
2023/11/26 06:03:04;;;;;;;3.05;1.02;;;;;;;18.44;39.23;101506.41;5008675;28;20065;-65
2023/11/26 06:05:29;;;;;;;3.97;1.10;;;;;;;18.48;38.93;101504.38;5008414;28;20037;-64
2023/11/26 06:07:54;;;;;;;4.07;1.00;;;;;;;18.52;39.15;101502.34;5008897;28;20030;-63
2023/11/26 06:10:20;;;;;;;3.30;0.90;;;;;;;18.55;38.95;101500.38;5008034;28;20463;-63
2023/11/26 06:12:45;;;;;;;2.80;0.90;;;;;;;18.58;39.12;101499.28;5008634;28;20418;-65
2023/11/26 06:15:11;;;;;;;2.85;0.88;;;;;;;18.60;39.13;101500.03;5008280;28;20159;-64
2023/11/26 06:17:36;;;;;;;2.40;0.88;;;;;;;18.62;39.06;101501.59;5008269;28;20053;-64
2023/11/26 06:20:02;;;;;;;2.70;0.82;;;;;;;18.63;38.95;101503.28;5008654;28;20042;-64
2023/11/26 06:22:27;;;;;;;3.17;0.82;;;;;;;18.65;39.04;101511.09;5008111;28;20056;-64
2023/11/26 06:24:53;;;;;;;3.20;0.98;;;;;;;18.66;39.10;101512.78;5007850;28;20563;-64
2023/11/26 06:27:18;;;;;;;3.67;1.00;;;;;;;18.66;38.79;101516.25;5007799;28;20038;-63
2023/11/26 06:29:44;;;;;;;3.63;0.70;;;;;;;18.68;38.96;101524.91;5007205;28;20530;-63
2023/11/26 06:32:09;;;;;;;2.92;0.85;;;;;;;18.68;39.01;101522.25;5007934;28;20034;-64
2023/11/26 06:34:34;;;;;;;2.40;0.85;;;;;;;18.68;39.02;101518.78;5008330;28;20040;-63
2023/11/26 06:37:00;;;;;;;2.47;0.90;;;;;;;18.71;39.10;101515.06;5007594;28;20033;-63
2023/11/26 06:39:27;;;;;;;2.60;0.90;;;;;;;18.74;38.93;101513.06;5007999;28;20359;-63
2023/11/26 06:41:52;;;;;;;2.60;0.77;;;;;;;18.77;39.00;101512.84;5007263;28;20049;-64
2023/11/26 06:44:18;;;;;;;2.33;0.68;;;;;;;18.79;39.01;101515.38;5007469;28;20026;-65
2023/11/26 06:46:43;;;;;;;2.80;0.80;;;;;;;18.80;39.16;101512.63;5007789;28;20091;-63
2023/11/26 06:49:09;;;;;;;2.15;0.75;;;;;;;18.83;39.25;101506.25;5007638;28;20040;-63
2023/11/26 06:51:34;;;;;;;2.95;1.00;;;;;;;18.85;38.89;101504.41;5007965;28;20455;-63
2023/11/26 06:54:00;;;;;;;3.72;0.90;;;;;;;18.87;38.86;101498.97;5007443;28;20048;-65
2023/11/26 06:56:25;;;;;;;3.25;0.70;;;;;;;18.88;38.76;101500.66;5007373;28;20038;-63
2023/11/26 06:58:51;;;;;;;2.03;0.80;;;;;;;18.89;38.99;101505.00;5007270;28;20439;-63
2023/11/26 07:01:16;;;;;;;2.42;0.63;;;;;;;18.90;39.14;101498.75;5007704;28;20076;-63
2023/11/26 07:03:44;;;;;;;3.15;1.00;;;;;;;18.90;39.03;101499.59;5006855;28;20049;-63
2023/11/26 07:06:11;;;;;;;2.17;0.80;;;;;;;18.89;39.16;101505.84;5007352;28;20033;-63
2023/11/26 07:08:38;;;;;;;3.55;0.88;;;;;;;18.89;38.78;101497.91;5006915;28;20983;-63
2023/11/26 07:11:18;;;;;;;2.85;0.80;;;;;;;18.90;39.14;101501.38;5007545;28;20025;-63
2023/11/26 07:13:47;;;;;;;2.17;0.73;;;;;;;18.90;38.91;101506.66;5007317;28;20030;-64
2023/11/26 07:16:13;;;;;;;2.67;0.90;;;;;;;18.92;39.01;101508.25;5007155;28;20455;-63
2023/11/26 07:18:38;;;;;;;2.53;0.85;;;;;;;18.93;39.15;101506.44;5007598;28;20025;-63
2023/11/26 07:21:05;;;;;;;1.92;0.70;;;;;;;18.92;39.01;101504.78;5005508;28;20037;-63
2023/11/26 07:23:31;;;;;;;2.88;0.70;;;;;;;18.92;38.95;101505.59;5007028;28;20034;-62
2023/11/26 07:25:57;;;;;;;3.22;0.80;;;;;;;18.92;39.01;101510.06;5007309;28;20030;-63
2023/11/26 07:28:24;;;;;;;1.80;0.73;;;;;;;18.91;39.06;101497.78;5006901;28;20386;-62
2023/11/26 07:30:50;;;;;;;1.98;0.80;;;;;;;18.90;39.30;101506.66;5006023;28;20100;-63
2023/11/26 07:33:15;;;;;;;1.75;0.63;;;;;;;18.91;39.26;101505.72;5007447;28;20469;-62
2023/11/26 07:35:42;;;;;;;4.38;0.80;;;;;;;18.88;39.48;101504.13;5006986;28;20042;-65
2023/11/26 07:38:08;;;;;;;2.42;0.80;;;;;;;18.88;39.41;101505.94;5006982;28;20038;-64
2023/11/26 07:40:34;;;;;;;2.00;0.60;;;;;;;18.89;39.46;101505.84;5006757;28;20029;-63
2023/11/26 07:42:59;;;;;;;2.20;0.60;;;;;;;18.90;39.32;101511.94;5007244;28;20351;-63
2023/11/26 07:45:25;;;;;;;2.08;0.70;;;;;;;18.89;39.32;101510.28;5007108;28;20025;-62
2023/11/26 07:47:50;;;;;;;3.50;0.90;;;;;;;18.89;39.37;101510.28;5006674;28;20026;-63
2023/11/26 07:50:16;;;;;;;3.08;0.73;;;;;;;18.88;39.35;101513.88;5006619;28;20056;-63
2023/11/26 07:52:41;;;;;;;2.92;0.68;;;;;;;18.90;39.39;101507.53;5006753;28;20029;-65
2023/11/26 07:55:07;;;;;;;3.87;0.97;;;;;;;18.91;39.28;101517.13;5006631;28;20032;-63
2023/11/26 07:57:34;;;;;;;2.05;0.80;;;;;;;18.92;39.15;101508.25;5006081;28;20325;-63
2023/11/26 08:00:00;;;;;;;3.20;0.90;;;;;;;18.92;38.91;101510.06;5006852;28;20037;-63
2023/11/26 08:02:32;;;;;;;3.85;0.88;;;;;;;18.94;39.27;101505.50;5006621;28;20038;-63
2023/11/26 08:04:57;;;;;;;2.92;0.93;;;;;;;18.94;39.14;101497.56;5006731;28;20021;-64
2023/11/26 08:07:24;;;;;;;2.63;0.73;;;;;;;18.95;39.00;101504.56;5006197;28;20138;-63
2023/11/26 08:09:53;;;;;;;3.25;0.90;;;;;;;18.95;39.50;101502.75;5006583;28;20524;-63
2023/11/26 08:12:23;;;;;;;6.40;1.10;;;;;;;18.96;39.40;101508.84;5006907;28;20024;-64
2023/11/26 08:14:51;;;;;;;2.75;0.90;;;;;;;18.97;39.32;101510.56;5006670;28;20021;-65
2023/11/26 08:17:17;;;;;;;3.05;0.85;;;;;;;18.96;39.77;101509.72;5006569;28;20029;-64
2023/11/26 08:19:43;;;;;;;3.50;0.90;;;;;;;18.98;39.64;101509.59;5006035;28;20037;-65
2023/11/26 08:22:09;;;;;;;3.20;0.77;;;;;;;18.98;39.64;101515.72;5006295;28;20439;-65
2023/11/26 08:24:39;;;;;;;1.73;0.80;;;;;;;18.98;39.76;101518.38;5006133;28;20084;-66
2023/11/26 08:27:04;;;;;;;2.70;0.90;;;;;;;18.99;39.95;101516.56;5006507;28;20029;-67
2023/11/26 08:29:30;;;;;;;3.28;0.95;;;;;;;18.99;39.74;101511.28;5005905;28;20065;-64
2023/11/26 08:31:57;;;;;;;3.25;0.90;;;;;;;19.02;40.01;101518.97;5006230;28;20036;-64
2023/11/26 08:34:23;;;;;;;4.20;1.10;;;;;;;19.00;40.20;101516.44;5006357;28;20053;-65
2023/11/26 08:36:51;;;;;;;3.25;1.00;;;;;;;19.01;40.11;101520.78;5006100;28;20133;-64
2023/11/26 08:39:26;;;;;;;3.75;0.90;;;;;;;19.04;40.47;101522.31;5006276;28;20421;-66
2023/11/26 08:41:52;;;;;;;3.67;0.90;;;;;;;19.04;40.24;101514.41;5006605;28;20049;-64
2023/11/26 08:44:18;;;;;;;2.72;0.90;;;;;;;19.07;40.47;101518.63;5005960;28;20041;-66
2023/11/26 08:46:43;;;;;;;6.05;1.00;;;;;;;19.07;40.33;101516.00;5006603;28;20026;-67
2023/11/26 08:49:09;;;;;;;5.15;1.10;;;;;;;19.05;40.41;101518.75;5006463;28;20029;-67
2023/11/26 08:51:36;;;;;;;5.07;1.02;;;;;;;19.04;40.41;101509.13;5004607;28;20040;-64
2023/11/26 08:54:03;;;;;;;5.13;1.10;;;;;;;18.97;40.49;101511.38;5008104;28;20484;-65
2023/11/26 08:56:29;;;;;;;3.28;1.00;;;;;;;18.95;40.91;101501.91;5005538;28;20033;-65
2023/11/26 08:58:54;;;;;;;3.75;1.10;;;;;;;18.97;40.86;101500.81;5005315;28;20022;-64
2023/11/26 09:01:20;;;;;;;3.03;1.07;;;;;;;19.02;41.01;101508.41;5005756;28;20040;-65
2023/11/26 09:03:46;;;;;;;6.10;1.25;;;;;;;18.94;41.07;101506.31;5006669;28;20275;-67
2023/11/26 09:06:11;;;;;;;3.35;1.08;;;;;;;18.97;41.14;101510.56;5009246;28;20025;-65
2023/11/26 09:08:37;;;;;;;3.58;1.08;;;;;;;18.98;41.00;101517.53;5023702;28;20030;-64
2023/11/26 09:11:03;;;;;;;5.22;1.50;;;;;;;18.95;41.00;101518.59;5009115;28;20113;-68
2023/11/26 09:13:29;;;;;;;5.15;1.30;;;;;;;18.97;41.14;101515.84;5008863;28;20144;-59
2023/11/26 09:15:55;;;;;;;6.10;1.50;;;;;;;18.99;40.92;101520.06;5008811;28;20422;-61
2023/11/26 09:18:21;;;;;;;7.15;1.33;;;;;;;18.98;41.04;101513.06;5008674;28;20036;-63
2023/11/26 09:20:48;;;;;;;8.00;1.92;;;;;;;18.99;41.05;101519.19;5009048;28;20049;-65
2023/11/26 09:23:13;;;;;;;3.72;1.20;;;;;;;19.00;41.34;101510.31;5008832;28;20049;-65
2023/11/26 09:25:39;;;;;;;6.72;1.33;;;;;;;19.01;41.07;101514.66;5009324;28;20065;-62
2023/11/26 09:28:05;;;;;;;5.43;1.30;;;;;;;19.00;41.25;101510.31;5008383;28;20485;-65
2023/11/26 09:30:30;;;;;;;7.55;1.23;;;;;;;19.05;41.08;101510.81;5008258;28;20049;-70
2023/11/26 09:32:56;;;;;;;5.03;1.25;;;;;;;19.07;40.94;101514.19;5021882;28;20037;-68
2023/11/26 09:35:21;;;;;;;5.22;1.38;;;;;;;19.11;40.95;101513.00;5008342;28;20041;-69
2023/11/26 09:37:47;;;;;;;3.85;1.10;;;;;;;19.20;40.82;101514.09;5008480;28;20030;-68
2023/11/26 09:40:12;;;;;;;4.88;1.20;;;;;;;19.24;40.72;101509.44;5007974;28;20046;-65
2023/11/26 09:42:38;;;;;;;5.07;1.20;;;;;;;19.29;40.49;101508.13;5008656;28;20022;-67
2023/11/26 09:45:04;;;;;;;7.05;1.33;;;;;;;19.31;40.66;101513.28;5008462;28;20026;-65
2023/11/26 09:47:29;;;;;;;4.68;1.13;;;;;;;19.34;40.67;101513.06;5008772;28;20061;-63
2023/11/26 09:49:57;;;;;;;4.93;1.50;;;;;;;19.33;40.72;101506.94;5007981;28;20053;-64
2023/11/26 09:52:24;;;;;;;4.22;1.30;;;;;;;19.38;40.56;101509.25;5008520;28;20025;-68
2023/11/26 09:54:49;;;;;;;4.85;1.30;;;;;;;19.40;40.50;101507.31;5008184;28;20057;-66
2023/11/26 09:57:15;;;;;;;5.00;1.13;;;;;;;19.43;40.35;101511.53;5008004;28;20069;-66
2023/11/26 09:59:40;;;;;;;3.97;1.10;;;;;;;19.37;40.71;101504.91;5008016;28;20259;-65
2023/11/26 10:02:12;;;;;;;3.90;1.30;;;;;;;19.31;40.96;101508.00;5008558;28;20026;-66
2023/11/26 10:04:47;;;;;;;3.60;1.00;;;;;;;19.30;40.95;101508.97;5008701;28;20466;-65
2023/11/26 10:07:14;;;;;;;3.75;1.08;;;;;;;19.27;40.83;101501.28;5010600;28;20034;-66
2023/11/26 10:09:39;;;;;;;5.18;1.10;;;;;;;19.26;40.95;101505.72;5008705;28;20026;-68
2023/11/26 10:12:05;;;;;;;3.17;1.08;;;;;;;19.25;40.83;101504.03;5008788;28;20037;-67
2023/11/26 10:14:30;;;;;;;5.32;1.20;;;;;;;19.20;41.04;101499.09;5008204;28;20018;-67
2023/11/26 10:17:07;;;;;;;7.60;1.50;;;;;;;19.21;41.18;101507.88;5007503;28;20033;-64
2023/11/26 10:19:33;;;;;;;4.03;1.08;;;;;;;19.18;41.25;101498.38;5008712;28;20426;-67
2023/11/26 10:21:59;;;;;;;4.45;1.10;;;;;;;19.17;41.16;101499.34;5008264;28;20515;-66
2023/11/26 10:24:27;;;;;;;9.90;1.40;;;;;;;19.18;41.20;101501.03;5007579;28;20068;-66
2023/11/26 10:26:54;;;;;;;5.75;1.33;;;;;;;19.18;41.14;101492.25;5007761;28;20555;-68
2023/11/26 10:29:29;;;;;;;4.25;1.20;;;;;;;19.15;41.30;101490.69;5007066;28;20026;-67
2023/11/26 10:32:01;;;;;;;5.35;1.30;;;;;;;19.14;41.16;101488.16;5008424;28;20022;-64
2023/11/26 10:34:28;;;;;;;4.13;1.30;;;;;;;19.12;41.15;101485.63;5008356;28;20036;-66
2023/11/26 10:36:55;;;;;;;4.05;1.23;;;;;;;19.09;41.33;101483.22;5008295;28;20046;-65
2023/11/26 10:39:21;;;;;;;6.32;1.20;;;;;;;19.12;41.51;101475.06;5007918;28;20439;-66
2023/11/26 10:41:47;;;;;;;3.28;0.90;;;;;;;19.17;41.51;101477.38;5007909;28;20382;-67
2023/11/26 10:44:17;;;;;;;3.65;1.17;;;;;;;19.17;41.37;101472.91;5007456;28;20594;-67
2023/11/26 10:46:48;;;;;;;4.38;1.35;;;;;;;19.15;41.61;101477.47;5008322;28;20109;-67
2023/11/26 10:49:15;;;;;;;4.95;1.45;;;;;;;19.16;41.58;101467.75;5007769;28;20030;-66
2023/11/26 10:51:46;;;;;;;4.72;1.50;;;;;;;19.12;41.65;101475.06;5007798;28;20069;-67
2023/11/26 10:54:30;;;;;;;4.63;1.10;;;;;;;19.12;41.71;101469.78;5007785;28;20030;-66
2023/11/26 10:57:05;;;;;;;7.70;1.50;;;;;;;19.10;41.93;101473.50;5007940;28;20026;-66
2023/11/26 10:59:36;;;;;;;3.45;1.05;;;;;;;19.09;41.76;101474.44;5007772;28;20267;-67
2023/11/26 11:02:02;;;;;;;2.45;1.08;;;;;;;19.10;41.95;101466.41;5006832;28;20033;-66
2023/11/26 11:04:29;;;;;;;3.22;1.05;;;;;;;19.11;42.19;101465.44;5005521;28;20045;-64
2023/11/26 11:06:58;;;;;;;5.97;1.67;;;;;;;19.12;42.33;101469.78;5007151;28;20367;-65
2023/11/26 11:09:34;;;;;;;5.80;1.08;;;;;;;19.14;42.19;101475.78;5007117;28;20057;-66
2023/11/26 11:12:08;;;;;;;4.95;1.20;;;;;;;19.20;42.37;101480.59;5006805;28;20032;-66
2023/11/26 11:14:33;;;;;;;5.38;1.25;;;;;;;19.27;42.10;101472.22;5006812;28;20584;-64
2023/11/26 11:16:59;;;;;;;5.20;1.17;;;;;;;19.32;41.97;101476.19;5006635;28;20101;-65
2023/11/26 11:19:50;;;;;;;6.97;1.30;;;;;;;19.40;41.92;101472.94;5008767;28;20360;-66
2023/11/26 11:22:16;;;;;;;4.80;1.13;;;;;;;19.40;42.03;101467.66;5007059;28;20042;-66
2023/11/26 11:24:41;;;;;;;3.28;1.10;;;;;;;19.35;42.05;101460.09;5006161;28;20053;-66
2023/11/26 11:27:07;;;;;;;4.57;1.10;;;;;;;19.36;42.22;101460.94;5006219;28;20037;-65